sensor_id;sensor_type;location;lat;lon;timestamp;pressure;altitude;pressure_sealevel;temperature;humidity
74790;BME280;63318;52.406;13.416;2024-02-04T00:02:24;101393.61;;;7.44;88.55
74790;BME280;63318;52.406;13.416;2024-02-04T00:04:52;101402.08;;;7.44;88.45
74790;BME280;63318;52.406;13.416;2024-02-04T00:07:21;101396.93;;;7.44;88.42
74790;BME280;63318;52.406;13.416;2024-02-04T00:09:49;101398.92;;;7.44;88.63
74790;BME280;63318;52.406;13.416;2024-02-04T00:12:17;101395.34;;;7.44;88.58
74790;BME280;63318;52.406;13.416;2024-02-04T00:14:47;101407.48;;;7.44;88.41
74790;BME280;63318;52.406;13.416;2024-02-04T00:17:15;101408.31;;;7.43;88.33
74790;BME280;63318;52.406;13.416;2024-02-04T00:19:44;101414.20;;;7.42;88.06
74790;BME280;63318;52.406;13.416;2024-02-04T00:22:12;101407.63;;;7.41;88.01
74790;BME280;63318;52.406;13.416;2024-02-04T00:24:40;101403.87;;;7.39;88.00
74790;BME280;63318;52.406;13.416;2024-02-04T00:27:09;101410.50;;;7.36;88.02
74790;BME280;63318;52.406;13.416;2024-02-04T00:29:37;101409.77;;;7.34;87.59
74790;BME280;63318;52.406;13.416;2024-02-04T00:32:07;101397.92;;;7.31;87.76
74790;BME280;63318;52.406;13.416;2024-02-04T00:34:35;101393.25;;;7.28;87.45
74790;BME280;63318;52.406;13.416;2024-02-04T00:37:03;101399.68;;;7.25;87.36
74790;BME280;63318;52.406;13.416;2024-02-04T00:39:32;101406.48;;;7.21;87.41
74790;BME280;63318;52.406;13.416;2024-02-04T00:42:00;101405.13;;;7.18;86.99
74790;BME280;63318;52.406;13.416;2024-02-04T00:44:29;101406.11;;;7.15;86.99
74790;BME280;63318;52.406;13.416;2024-02-04T00:46:57;101410.84;;;7.12;86.87
74790;BME280;63318;52.406;13.416;2024-02-04T00:49:26;101406.66;;;7.09;87.13
74790;BME280;63318;52.406;13.416;2024-02-04T00:51:55;101398.77;;;7.07;86.96
74790;BME280;63318;52.406;13.416;2024-02-04T00:54:23;101398.44;;;7.05;87.08
74790;BME280;63318;52.406;13.416;2024-02-04T00:56:52;101394.77;;;7.04;87.12
74790;BME280;63318;52.406;13.416;2024-02-04T00:59:20;101396.27;;;7.03;86.83
74790;BME280;63318;52.406;13.416;2024-02-04T01:01:48;101401.98;;;7.01;86.94
74790;BME280;63318;52.406;13.416;2024-02-04T01:04:17;101398.30;;;7.00;87.18
74790;BME280;63318;52.406;13.416;2024-02-04T01:06:45;101399.23;;;6.97;86.73
74790;BME280;63318;52.406;13.416;2024-02-04T01:09:14;101392.39;;;6.95;86.58
74790;BME280;63318;52.406;13.416;2024-02-04T01:11:42;101390.64;;;6.92;86.35
74790;BME280;63318;52.406;13.416;2024-02-04T01:14:11;101389.06;;;6.89;86.27
74790;BME280;63318;52.406;13.416;2024-02-04T01:16:39;101387.76;;;6.86;86.39
74790;BME280;63318;52.406;13.416;2024-02-04T01:19:08;101385.13;;;6.83;86.34
74790;BME280;63318;52.406;13.416;2024-02-04T01:21:36;101384.31;;;6.80;86.11
74790;BME280;63318;52.406;13.416;2024-02-04T01:24:05;101380.52;;;6.76;86.23
74790;BME280;63318;52.406;13.416;2024-02-04T01:26:33;101376.31;;;6.72;86.20
74790;BME280;63318;52.406;13.416;2024-02-04T01:29:01;101378.70;;;6.69;85.94
74790;BME280;63318;52.406;13.416;2024-02-04T01:31:30;101387.20;;;6.65;86.22
74790;BME280;63318;52.406;13.416;2024-02-04T01:33:58;101385.67;;;6.62;86.01
74790;BME280;63318;52.406;13.416;2024-02-04T01:36:26;101386.49;;;6.58;86.21
74790;BME280;63318;52.406;13.416;2024-02-04T01:38:54;101391.27;;;6.53;86.12
74790;BME280;63318;52.406;13.416;2024-02-04T01:41:22;101393.25;;;6.48;85.83
74790;BME280;63318;52.406;13.416;2024-02-04T01:43:51;101386.92;;;6.44;86.05
74790;BME280;63318;52.406;13.416;2024-02-04T01:46:19;101391.31;;;6.39;86.16
74790;BME280;63318;52.406;13.416;2024-02-04T01:48:47;101395.53;;;6.35;86.16
74790;BME280;63318;52.406;13.416;2024-02-04T01:51:17;101398.72;;;6.30;86.20
74790;BME280;63318;52.406;13.416;2024-02-04T01:53:47;101397.14;;;6.27;86.52
74790;BME280;63318;52.406;13.416;2024-02-04T01:56:16;101399.35;;;6.24;86.58
74790;BME280;63318;52.406;13.416;2024-02-04T01:58:45;101404.00;;;6.22;86.59
74790;BME280;63318;52.406;13.416;2024-02-04T02:01:14;101406.95;;;6.20;86.72
74790;BME280;63318;52.406;13.416;2024-02-04T02:03:42;101399.11;;;6.18;86.68
74790;BME280;63318;52.406;13.416;2024-02-04T02:06:11;101393.23;;;6.17;86.77
74790;BME280;63318;52.406;13.416;2024-02-04T02:08:41;101397.59;;;6.15;87.04
74790;BME280;63318;52.406;13.416;2024-02-04T02:11:13;101395.44;;;6.13;86.94
74790;BME280;63318;52.406;13.416;2024-02-04T02:13:52;101392.91;;;6.12;87.10
74790;BME280;63318;52.406;13.416;2024-02-04T02:16:24;101388.55;;;6.10;87.02
74790;BME280;63318;52.406;13.416;2024-02-04T02:18:55;101392.81;;;6.09;87.03
74790;BME280;63318;52.406;13.416;2024-02-04T02:21:47;101389.83;;;6.07;86.86
74790;BME280;63318;52.406;13.416;2024-02-04T02:24:29;101378.09;;;6.04;87.02
74790;BME280;63318;52.406;13.416;2024-02-04T02:26:58;101369.45;;;6.00;86.94
74790;BME280;63318;52.406;13.416;2024-02-04T02:29:26;101362.02;;;5.97;87.09
74790;BME280;63318;52.406;13.416;2024-02-04T02:31:55;101361.76;;;5.94;86.88
74790;BME280;63318;52.406;13.416;2024-02-04T02:34:23;101368.79;;;5.91;87.09
74790;BME280;63318;52.406;13.416;2024-02-04T02:36:58;101374.63;;;5.88;87.07
74790;BME280;63318;52.406;13.416;2024-02-04T02:39:32;101371.64;;;5.86;86.99
74790;BME280;63318;52.406;13.416;2024-02-04T02:42:05;101361.16;;;5.83;86.92
74790;BME280;63318;52.406;13.416;2024-02-04T02:44:35;101358.55;;;5.81;87.17
74790;BME280;63318;52.406;13.416;2024-02-04T02:47:06;101365.10;;;5.79;87.14
74790;BME280;63318;52.406;13.416;2024-02-04T02:49:35;101360.80;;;5.77;87.23
74790;BME280;63318;52.406;13.416;2024-02-04T02:52:04;101364.20;;;5.75;87.16
74790;BME280;63318;52.406;13.416;2024-02-04T02:54:32;101367.84;;;5.73;87.03
74790;BME280;63318;52.406;13.416;2024-02-04T02:57:01;101380.50;;;5.71;87.47
74790;BME280;63318;52.406;13.416;2024-02-04T02:59:29;101383.88;;;5.69;87.41
74790;BME280;63318;52.406;13.416;2024-02-04T03:01:57;101384.93;;;5.68;87.49
74790;BME280;63318;52.406;13.416;2024-02-04T03:04:25;101381.36;;;5.67;87.38
74790;BME280;63318;52.406;13.416;2024-02-04T03:06:54;101375.35;;;5.67;87.53
74790;BME280;63318;52.406;13.416;2024-02-04T03:09:22;101377.02;;;5.67;87.47
74790;BME280;63318;52.406;13.416;2024-02-04T03:11:50;101377.23;;;5.67;87.25
74790;BME280;63318;52.406;13.416;2024-02-04T03:14:19;101380.77;;;5.68;87.51
74790;BME280;63318;52.406;13.416;2024-02-04T03:16:47;101384.67;;;5.69;87.58
74790;BME280;63318;52.406;13.416;2024-02-04T03:19:16;101384.16;;;5.70;87.51
74790;BME280;63318;52.406;13.416;2024-02-04T03:21:44;101379.01;;;5.71;87.78
74790;BME280;63318;52.406;13.416;2024-02-04T03:24:12;101379.11;;;5.73;87.69
74790;BME280;63318;52.406;13.416;2024-02-04T03:26:40;101378.39;;;5.74;87.84
74790;BME280;63318;52.406;13.416;2024-02-04T03:29:09;101376.19;;;5.76;87.66
74790;BME280;63318;52.406;13.416;2024-02-04T03:31:37;101371.48;;;5.78;87.87
74790;BME280;63318;52.406;13.416;2024-02-04T03:34:05;101376.08;;;5.81;87.85
74790;BME280;63318;52.406;13.416;2024-02-04T03:36:33;101368.63;;;5.84;87.65
74790;BME280;63318;52.406;13.416;2024-02-04T03:39:04;101360.95;;;5.86;87.84
74790;BME280;63318;52.406;13.416;2024-02-04T03:41:33;101355.91;;;5.88;87.66
74790;BME280;63318;52.406;13.416;2024-02-04T03:44:01;101351.38;;;5.90;87.97
74790;BME280;63318;52.406;13.416;2024-02-04T03:46:29;101350.40;;;5.93;87.95
74790;BME280;63318;52.406;13.416;2024-02-04T03:48:58;101347.24;;;5.94;87.70
74790;BME280;63318;52.406;13.416;2024-02-04T03:51:26;101346.38;;;5.96;87.66
74790;BME280;63318;52.406;13.416;2024-02-04T03:53:54;101344.98;;;5.98;87.93
74790;BME280;63318;52.406;13.416;2024-02-04T03:56:22;101339.48;;;5.99;87.72
74790;BME280;63318;52.406;13.416;2024-02-04T03:58:51;101330.11;;;6.00;87.88
74790;BME280;63318;52.406;13.416;2024-02-04T04:01:19;101338.81;;;6.01;87.81
74790;BME280;63318;52.406;13.416;2024-02-04T04:03:47;101337.65;;;6.02;87.57
74790;BME280;63318;52.406;13.416;2024-02-04T04:06:15;101333.69;;;6.02;87.59
74790;BME280;63318;52.406;13.416;2024-02-04T04:08:43;101329.26;;;6.01;87.59
74790;BME280;63318;52.406;13.416;2024-02-04T04:11:12;101326.05;;;6.00;87.61
74790;BME280;63318;52.406;13.416;2024-02-04T04:13:40;101317.67;;;5.99;87.54
74790;BME280;63318;52.406;13.416;2024-02-04T04:16:08;101317.27;;;5.96;87.48
74790;BME280;63318;52.406;13.416;2024-02-04T04:18:37;101322.58;;;5.95;87.15
74790;BME280;63318;52.406;13.416;2024-02-04T04:21:06;101317.30;;;5.94;87.54
74790;BME280;63318;52.406;13.416;2024-02-04T04:23:34;101308.46;;;5.92;87.31
74790;BME280;63318;52.406;13.416;2024-02-04T04:26:02;101299.20;;;5.88;87.53
74790;BME280;63318;52.406;13.416;2024-02-04T04:28:30;101302.33;;;5.86;87.33
74790;BME280;63318;52.406;13.416;2024-02-04T04:30:59;101300.13;;;5.83;87.26
74790;BME280;63318;52.406;13.416;2024-02-04T04:33:27;101293.41;;;5.80;87.28
74790;BME280;63318;52.406;13.416;2024-02-04T04:35:55;101297.81;;;5.78;87.39
74790;BME280;63318;52.406;13.416;2024-02-04T04:38:24;101291.72;;;5.76;87.37
74790;BME280;63318;52.406;13.416;2024-02-04T04:40:52;101297.98;;;5.73;87.30
74790;BME280;63318;52.406;13.416;2024-02-04T04:43:20;101300.18;;;5.71;87.20
74790;BME280;63318;52.406;13.416;2024-02-04T04:45:48;101302.96;;;5.69;87.31
74790;BME280;63318;52.406;13.416;2024-02-04T04:48:17;101299.36;;;5.65;87.38
74790;BME280;63318;52.406;13.416;2024-02-04T04:50:45;101296.31;;;5.63;87.20
74790;BME280;63318;52.406;13.416;2024-02-04T04:53:13;101293.01;;;5.60;87.22
74790;BME280;63318;52.406;13.416;2024-02-04T04:55:42;101292.44;;;5.58;87.27
74790;BME280;63318;52.406;13.416;2024-02-04T04:58:10;101292.98;;;5.55;87.32
74790;BME280;63318;52.406;13.416;2024-02-04T05:00:38;101291.17;;;5.52;87.11
74790;BME280;63318;52.406;13.416;2024-02-04T05:03:07;101284.38;;;5.50;87.32
74790;BME280;63318;52.406;13.416;2024-02-04T05:05:35;101280.48;;;5.47;87.21
74790;BME280;63318;52.406;13.416;2024-02-04T05:08:03;101270.07;;;5.44;87.26
74790;BME280;63318;52.406;13.416;2024-02-04T05:10:32;101267.98;;;5.41;87.16
74790;BME280;63318;52.406;13.416;2024-02-04T05:13:00;101267.73;;;5.38;87.28
74790;BME280;63318;52.406;13.416;2024-02-04T05:15:28;101262.49;;;5.34;87.18
74790;BME280;63318;52.406;13.416;2024-02-04T05:17:57;101260.84;;;5.32;87.25
74790;BME280;63318;52.406;13.416;2024-02-04T05:20:25;101260.73;;;5.29;87.14
74790;BME280;63318;52.406;13.416;2024-02-04T05:22:53;101259.65;;;5.26;87.27
74790;BME280;63318;52.406;13.416;2024-02-04T05:25:21;101262.81;;;5.24;87.16
74790;BME280;63318;52.406;13.416;2024-02-04T05:27:50;101259.16;;;5.21;87.23
74790;BME280;63318;52.406;13.416;2024-02-04T05:30:18;101260.27;;;5.19;87.33
74790;BME280;63318;52.406;13.416;2024-02-04T05:32:46;101261.84;;;5.16;87.24
74790;BME280;63318;52.406;13.416;2024-02-04T05:35:15;101256.70;;;5.12;87.27
74790;BME280;63318;52.406;13.416;2024-02-04T05:37:43;101253.98;;;5.10;87.15
74790;BME280;63318;52.406;13.416;2024-02-04T05:40:13;101246.88;;;5.08;87.29
74790;BME280;63318;52.406;13.416;2024-02-04T05:42:41;101247.83;;;5.05;87.42
74790;BME280;63318;52.406;13.416;2024-02-04T05:45:10;101243.36;;;5.03;87.33
74790;BME280;63318;52.406;13.416;2024-02-04T05:47:38;101242.37;;;5.00;87.38
74790;BME280;63318;52.406;13.416;2024-02-04T05:50:08;101244.88;;;4.98;87.38
74790;BME280;63318;52.406;13.416;2024-02-04T05:52:37;101251.72;;;4.96;87.46
74790;BME280;63318;52.406;13.416;2024-02-04T05:55:06;101253.05;;;4.95;87.52
74790;BME280;63318;52.406;13.416;2024-02-04T05:57:34;101259.11;;;4.93;87.54
74790;BME280;63318;52.406;13.416;2024-02-04T06:00:03;101257.64;;;4.92;87.33
74790;BME280;63318;52.406;13.416;2024-02-04T06:02:31;101257.13;;;4.92;87.37
74790;BME280;63318;52.406;13.416;2024-02-04T06:05:00;101259.64;;;4.91;87.67
74790;BME280;63318;52.406;13.416;2024-02-04T06:07:28;101255.58;;;4.91;87.83
74790;BME280;63318;52.406;13.416;2024-02-04T06:09:56;101259.26;;;4.91;87.69
74790;BME280;63318;52.406;13.416;2024-02-04T06:12:24;101257.35;;;4.91;87.87
74790;BME280;63318;52.406;13.416;2024-02-04T06:14:53;101256.48;;;4.92;87.62
74790;BME280;63318;52.406;13.416;2024-02-04T06:17:21;101260.20;;;4.93;87.71
74790;BME280;63318;52.406;13.416;2024-02-04T06:19:49;101253.17;;;4.95;87.84
74790;BME280;63318;52.406;13.416;2024-02-04T06:22:18;101256.20;;;4.97;87.68
74790;BME280;63318;52.406;13.416;2024-02-04T06:24:46;101252.25;;;4.99;87.74
74790;BME280;63318;52.406;13.416;2024-02-04T06:27:14;101253.20;;;5.01;87.64
74790;BME280;63318;52.406;13.416;2024-02-04T06:29:43;101246.95;;;5.04;87.71
74790;BME280;63318;52.406;13.416;2024-02-04T06:32:11;101249.00;;;5.06;87.75
74790;BME280;63318;52.406;13.416;2024-02-04T06:34:40;101253.98;;;5.08;87.71
74790;BME280;63318;52.406;13.416;2024-02-04T06:37:08;101252.73;;;5.10;87.74
74790;BME280;63318;52.406;13.416;2024-02-04T06:39:36;101249.04;;;5.12;87.86
74790;BME280;63318;52.406;13.416;2024-02-04T06:42:05;101250.20;;;5.14;87.68
74790;BME280;63318;52.406;13.416;2024-02-04T06:44:33;101248.91;;;5.16;87.85
74790;BME280;63318;52.406;13.416;2024-02-04T06:47:02;101252.57;;;5.19;88.02
74790;BME280;63318;52.406;13.416;2024-02-04T06:49:30;101257.05;;;5.21;87.87
74790;BME280;63318;52.406;13.416;2024-02-04T06:51:58;101259.27;;;5.23;87.98
74790;BME280;63318;52.406;13.416;2024-02-04T06:54:27;101257.67;;;5.25;87.68
74790;BME280;63318;52.406;13.416;2024-02-04T06:56:55;101258.88;;;5.28;88.00
74790;BME280;63318;52.406;13.416;2024-02-04T06:59:23;101256.52;;;5.30;87.93
74790;BME280;63318;52.406;13.416;2024-02-04T07:01:51;101257.05;;;5.33;87.76
74790;BME280;63318;52.406;13.416;2024-02-04T07:04:20;101254.69;;;5.35;87.90
74790;BME280;63318;52.406;13.416;2024-02-04T07:06:48;101250.52;;;5.37;87.78
74790;BME280;63318;52.406;13.416;2024-02-04T07:09:16;101249.41;;;5.38;87.85
74790;BME280;63318;52.406;13.416;2024-02-04T07:11:45;101243.63;;;5.40;87.76
74790;BME280;63318;52.406;13.416;2024-02-04T07:14:13;101248.77;;;5.43;87.73
74790;BME280;63318;52.406;13.416;2024-02-04T07:16:41;101250.15;;;5.44;87.55
74790;BME280;63318;52.406;13.416;2024-02-04T07:19:10;101243.77;;;5.47;87.71
74790;BME280;63318;52.406;13.416;2024-02-04T07:21:42;101245.95;;;5.48;87.72
74790;BME280;63318;52.406;13.416;2024-02-04T07:24:11;101240.77;;;5.49;87.73
74790;BME280;63318;52.406;13.416;2024-02-04T07:26:39;101230.66;;;5.50;87.52
74790;BME280;63318;52.406;13.416;2024-02-04T07:29:07;101233.75;;;5.52;87.56
74790;BME280;63318;52.406;13.416;2024-02-04T07:31:36;101235.20;;;5.55;87.65
74790;BME280;63318;52.406;13.416;2024-02-04T07:34:04;101231.31;;;5.57;87.43
74790;BME280;63318;52.406;13.416;2024-02-04T07:36:32;101235.73;;;5.61;87.70
74790;BME280;63318;52.406;13.416;2024-02-04T07:39:01;101235.21;;;5.64;87.53
74790;BME280;63318;52.406;13.416;2024-02-04T07:41:29;101239.67;;;5.68;87.46
74790;BME280;63318;52.406;13.416;2024-02-04T07:43:57;101241.70;;;5.71;87.63
74790;BME280;63318;52.406;13.416;2024-02-04T07:46:26;101230.77;;;5.75;87.57
74790;BME280;63318;52.406;13.416;2024-02-04T07:48:54;101218.25;;;5.78;87.42
74790;BME280;63318;52.406;13.416;2024-02-04T07:51:22;101209.14;;;5.81;87.40
74790;BME280;63318;52.406;13.416;2024-02-04T07:53:50;101203.09;;;5.85;87.34
74790;BME280;63318;52.406;13.416;2024-02-04T07:56:21;101195.68;;;5.87;87.29
74790;BME280;63318;52.406;13.416;2024-02-04T07:58:49;101193.65;;;5.91;87.47
74790;BME280;63318;52.406;13.416;2024-02-04T08:01:19;101194.61;;;5.94;87.28
74790;BME280;63318;52.406;13.416;2024-02-04T08:03:47;101188.17;;;5.97;87.30
74790;BME280;63318;52.406;13.416;2024-02-04T08:06:16;101191.96;;;6.00;87.25
74790;BME280;63318;52.406;13.416;2024-02-04T08:08:44;101199.93;;;6.03;87.30
74790;BME280;63318;52.406;13.416;2024-02-04T08:11:17;101205.80;;;6.06;87.27
74790;BME280;63318;52.406;13.416;2024-02-04T08:13:45;101207.16;;;6.11;87.10
74790;BME280;63318;52.406;13.416;2024-02-04T08:16:14;101204.89;;;6.15;87.22
74790;BME280;63318;52.406;13.416;2024-02-04T08:18:42;101199.29;;;6.20;87.16
74790;BME280;63318;52.406;13.416;2024-02-04T08:21:11;101195.61;;;6.25;87.05
74790;BME280;63318;52.406;13.416;2024-02-04T08:23:39;101186.59;;;6.29;86.89
74790;BME280;63318;52.406;13.416;2024-02-04T08:26:08;101193.55;;;6.35;87.06
74790;BME280;63318;52.406;13.416;2024-02-04T08:28:36;101195.07;;;6.39;86.69
74790;BME280;63318;52.406;13.416;2024-02-04T08:31:05;101193.90;;;6.43;86.60
74790;BME280;63318;52.406;13.416;2024-02-04T08:33:33;101194.13;;;6.47;86.55
74790;BME280;63318;52.406;13.416;2024-02-04T08:36:01;101183.39;;;6.50;86.50
74790;BME280;63318;52.406;13.416;2024-02-04T08:38:30;101185.02;;;6.53;86.40
74790;BME280;63318;52.406;13.416;2024-02-04T08:40:59;101189.79;;;6.56;86.38
74790;BME280;63318;52.406;13.416;2024-02-04T08:43:27;101193.89;;;6.59;86.34
74790;BME280;63318;52.406;13.416;2024-02-04T08:45:56;101188.45;;;6.63;86.23
74790;BME280;63318;52.406;13.416;2024-02-04T08:48:24;101182.67;;;6.65;85.84
74790;BME280;63318;52.406;13.416;2024-02-04T08:50:52;101181.91;;;6.68;86.20
74790;BME280;63318;52.406;13.416;2024-02-04T08:53:21;101174.64;;;6.71;85.90
74790;BME280;63318;52.406;13.416;2024-02-04T08:55:49;101169.77;;;6.73;85.63
74790;BME280;63318;52.406;13.416;2024-02-04T08:58:18;101174.21;;;6.76;85.70
74790;BME280;63318;52.406;13.416;2024-02-04T09:00:46;101179.25;;;6.79;85.54
74790;BME280;63318;52.406;13.416;2024-02-04T09:03:14;101179.92;;;6.81;85.58
74790;BME280;63318;52.406;13.416;2024-02-04T09:05:42;101170.37;;;6.84;85.40
74790;BME280;63318;52.406;13.416;2024-02-04T09:08:11;101167.70;;;6.87;85.62
74790;BME280;63318;52.406;13.416;2024-02-04T09:10:39;101163.80;;;6.90;85.38
74790;BME280;63318;52.406;13.416;2024-02-04T09:13:07;101163.34;;;6.94;85.26
74790;BME280;63318;52.406;13.416;2024-02-04T09:15:36;101158.52;;;6.98;85.12
74790;BME280;63318;52.406;13.416;2024-02-04T09:18:04;101155.45;;;7.01;84.96
74790;BME280;63318;52.406;13.416;2024-02-04T09:20:33;101151.42;;;7.05;85.15
74790;BME280;63318;52.406;13.416;2024-02-04T09:23:01;101140.55;;;7.07;84.86
74790;BME280;63318;52.406;13.416;2024-02-04T09:25:29;101139.90;;;7.10;84.57
74790;BME280;63318;52.406;13.416;2024-02-04T09:27:58;101139.91;;;7.13;84.70
74790;BME280;63318;52.406;13.416;2024-02-04T09:30:26;101133.14;;;7.16;84.20
74790;BME280;63318;52.406;13.416;2024-02-04T09:32:54;101137.42;;;7.21;84.24
74790;BME280;63318;52.406;13.416;2024-02-04T09:35:23;101135.64;;;7.25;84.08
74790;BME280;63318;52.406;13.416;2024-02-04T09:37:51;101141.98;;;7.29;84.01
74790;BME280;63318;52.406;13.416;2024-02-04T09:40:20;101136.16;;;7.33;84.00
74790;BME280;63318;52.406;13.416;2024-02-04T09:42:48;101138.35;;;7.38;83.71
74790;BME280;63318;52.406;13.416;2024-02-04T09:45:17;101134.04;;;7.43;83.51
74790;BME280;63318;52.406;13.416;2024-02-04T09:47:46;101139.02;;;7.48;83.25
74790;BME280;63318;52.406;13.416;2024-02-04T09:50:16;101140.11;;;7.55;83.26
74790;BME280;63318;52.406;13.416;2024-02-04T09:52:49;101141.04;;;7.62;83.45
74790;BME280;63318;52.406;13.416;2024-02-04T09:55:19;101136.96;;;7.69;83.13
74790;BME280;63318;52.406;13.416;2024-02-04T09:57:48;101125.73;;;7.75;82.93
74790;BME280;63318;52.406;13.416;2024-02-04T10:00:19;101120.98;;;7.80;82.84
74790;BME280;63318;52.406;13.416;2024-02-04T10:02:48;101117.05;;;7.85;81.46
74790;BME280;63318;52.406;13.416;2024-02-04T10:05:18;101116.13;;;7.89;81.63
74790;BME280;63318;52.406;13.416;2024-02-04T10:07:46;101125.58;;;7.94;81.74
74790;BME280;63318;52.406;13.416;2024-02-04T10:10:15;101116.39;;;7.97;81.89
74790;BME280;63318;52.406;13.416;2024-02-04T10:12:44;101117.84;;;8.00;81.89
74790;BME280;63318;52.406;13.416;2024-02-04T10:15:12;101118.61;;;8.03;81.55
74790;BME280;63318;52.406;13.416;2024-02-04T10:17:43;101115.79;;;8.06;80.56
74790;BME280;63318;52.406;13.416;2024-02-04T10:20:14;101116.52;;;8.09;80.75
74790;BME280;63318;52.406;13.416;2024-02-04T10:22:45;101116.75;;;8.13;80.63
74790;BME280;63318;52.406;13.416;2024-02-04T10:25:13;101104.96;;;8.16;80.43
74790;BME280;63318;52.406;13.416;2024-02-04T10:27:42;101110.38;;;8.19;80.37
74790;BME280;63318;52.406;13.416;2024-02-04T10:30:12;101110.71;;;8.22;80.46
74790;BME280;63318;52.406;13.416;2024-02-04T10:32:41;101114.41;;;8.26;80.04
74790;BME280;63318;52.406;13.416;2024-02-04T10:35:10;101103.34;;;8.28;79.70
74790;BME280;63318;52.406;13.416;2024-02-04T10:37:39;101093.30;;;8.31;79.46
74790;BME280;63318;52.406;13.416;2024-02-04T10:40:11;101092.13;;;8.33;79.53
74790;BME280;63318;52.406;13.416;2024-02-04T10:42:41;101090.71;;;8.35;79.42
74790;BME280;63318;52.406;13.416;2024-02-04T10:45:11;101085.43;;;8.37;79.03
74790;BME280;63318;52.406;13.416;2024-02-04T10:47:41;101081.20;;;8.39;78.14
74790;BME280;63318;52.406;13.416;2024-02-04T10:50:13;101073.35;;;8.40;78.41
74790;BME280;63318;52.406;13.416;2024-02-04T10:52:47;101087.27;;;8.41;78.43
74790;BME280;63318;52.406;13.416;2024-02-04T10:55:17;101089.98;;;8.41;78.41
74790;BME280;63318;52.406;13.416;2024-02-04T10:57:50;101086.48;;;8.41;78.29
74790;BME280;63318;52.406;13.416;2024-02-04T11:00:20;101079.35;;;8.41;78.01
74790;BME280;63318;52.406;13.416;2024-02-04T11:02:49;101069.85;;;8.42;78.35
74790;BME280;63318;52.406;13.416;2024-02-04T11:05:19;101069.98;;;8.44;78.38
74790;BME280;63318;52.406;13.416;2024-02-04T11:07:50;101066.13;;;8.45;77.79
74790;BME280;63318;52.406;13.416;2024-02-04T11:10:19;101055.85;;;8.46;77.89
74790;BME280;63318;52.406;13.416;2024-02-04T11:12:50;101056.27;;;8.48;78.12
74790;BME280;63318;52.406;13.416;2024-02-04T11:15:21;101059.64;;;8.51;77.82
74790;BME280;63318;52.406;13.416;2024-02-04T11:21:34;101059.88;;;8.55;77.35
74790;BME280;63318;52.406;13.416;2024-02-04T11:24:22;101051.38;;;8.58;76.83
74790;BME280;63318;52.406;13.416;2024-02-04T11:26:57;101052.79;;;8.59;76.59
74790;BME280;63318;52.406;13.416;2024-02-04T11:29:27;101041.95;;;8.61;76.62
74790;BME280;63318;52.406;13.416;2024-02-04T11:31:56;101031.15;;;8.64;77.26
74790;BME280;63318;52.406;13.416;2024-02-04T11:34:25;101031.02;;;8.66;77.00
74790;BME280;63318;52.406;13.416;2024-02-04T11:36:53;101034.48;;;8.68;76.58
74790;BME280;63318;52.406;13.416;2024-02-04T11:39:23;101031.62;;;8.70;76.46
74790;BME280;63318;52.406;13.416;2024-02-04T11:41:52;101022.39;;;8.71;75.58
74790;BME280;63318;52.406;13.416;2024-02-04T11:44:24;101021.87;;;8.73;74.82
74790;BME280;63318;52.406;13.416;2024-02-04T11:46:56;101012.52;;;8.74;75.29
74790;BME280;63318;52.406;13.416;2024-02-04T11:49:26;101005.73;;;8.75;75.43
74790;BME280;63318;52.406;13.416;2024-02-04T11:51:55;100993.77;;;8.75;74.60
74790;BME280;63318;52.406;13.416;2024-02-04T11:54:25;100989.60;;;8.75;74.63
74790;BME280;63318;52.406;13.416;2024-02-04T11:56:54;100977.96;;;8.74;73.92
74790;BME280;63318;52.406;13.416;2024-02-04T11:59:23;100979.69;;;8.75;74.74
74790;BME280;63318;52.406;13.416;2024-02-04T12:01:55;100979.81;;;8.77;74.78
74790;BME280;63318;52.406;13.416;2024-02-04T12:04:25;100973.45;;;8.78;74.50
74790;BME280;63318;52.406;13.416;2024-02-04T12:06:55;100973.13;;;8.80;74.58
74790;BME280;63318;52.406;13.416;2024-02-04T12:09:24;100979.84;;;8.82;75.03
74790;BME280;63318;52.406;13.416;2024-02-04T12:11:55;100985.07;;;8.84;74.51
74790;BME280;63318;52.406;13.416;2024-02-04T12:14:24;100979.04;;;8.85;74.18
74790;BME280;63318;52.406;13.416;2024-02-04T12:16:53;100979.70;;;8.87;74.42
74790;BME280;63318;52.406;13.416;2024-02-04T12:19:21;100984.69;;;8.88;74.16
74790;BME280;63318;52.406;13.416;2024-02-04T12:21:50;100987.18;;;8.89;72.89
74790;BME280;63318;52.406;13.416;2024-02-04T12:24:20;100988.35;;;8.88;73.42
74790;BME280;63318;52.406;13.416;2024-02-04T12:26:48;100985.91;;;8.89;73.38
74790;BME280;63318;52.406;13.416;2024-02-04T12:29:18;100978.30;;;8.88;72.40
74790;BME280;63318;52.406;13.416;2024-02-04T12:31:46;100978.63;;;8.87;73.36
74790;BME280;63318;52.406;13.416;2024-02-04T12:34:14;100986.20;;;8.86;73.45
74790;BME280;63318;52.406;13.416;2024-02-04T12:36:43;100988.38;;;8.83;73.19
74790;BME280;63318;52.406;13.416;2024-02-04T12:39:11;100989.34;;;8.80;72.36
74790;BME280;63318;52.406;13.416;2024-02-04T12:41:40;100983.92;;;8.77;72.32
74790;BME280;63318;52.406;13.416;2024-02-04T12:44:08;100988.10;;;8.75;72.80
74790;BME280;63318;52.406;13.416;2024-02-04T12:46:36;100993.77;;;8.72;71.87
74790;BME280;63318;52.406;13.416;2024-02-04T12:49:05;100987.83;;;8.71;72.65
74790;BME280;63318;52.406;13.416;2024-02-04T12:51:36;100978.79;;;8.70;72.42
74790;BME280;63318;52.406;13.416;2024-02-04T12:54:06;100973.08;;;8.70;71.73
74790;BME280;63318;52.406;13.416;2024-02-04T12:56:46;100977.23;;;8.69;71.75
74790;BME280;63318;52.406;13.416;2024-02-04T12:59:27;100977.84;;;8.70;72.49
74790;BME280;63318;52.406;13.416;2024-02-04T13:01:58;100973.20;;;8.70;72.12
74790;BME280;63318;52.406;13.416;2024-02-04T13:04:26;100979.73;;;8.70;72.55